Catrua — EAWY — position and weather

sailwx.info

Track history (hours):
 
Tides and Currents Weather Stations Pressure Air Temp Water Temp Dewpoint Dewpoint Depression Visibility Wind Speed Wind Dir Waves Ship Positions

Catrua

Last reported at 2017-Sep-18 12:58 UTC. Time now 2017-Sep-23 02:25 UTC.
Position N 39°07' W 009°54'.

Length 27 m.

Type: Fishing. MMSI: 224355000.

Date/timePositionNaut miles runAvg speedWind from/ knotsBaromVisibWave heightAir tempDewpointWater temp
2017-Sep-18 12:58N 39°07' W 009°54'3 5.8
2017-Sep-18 12:30N 39°09' W 009°55'1 1.3
2017-Sep-18 12:00N 39°10' W 009°55'2 3.0
2017-Sep-18 11:28N 39°11' W 009°56'2 2.9
2017-Sep-18 10:37N 39°14' W 009°57'11 1.2
2017-Sep-18 01:02N 39°03' W 009°51'1 9.3
2017-Sep-18 00:59N 39°03' W 009°51'4 9.2
2017-Sep-18 00:30N 38°59' W 009°49'2 4.7
2017-Sep-18 00:00N 38°57' W 009°48'1 1.4
2017-Sep-17 23:30N 38°57' W 009°47'1 2.3
2017-Sep-17 23:00N 38°56' W 009°47'2 3.0
2017-Sep-17 22:30N 38°56' W 009°48'2 3.1
2017-Sep-17 22:00N 38°56' W 009°50'2 3.2
2017-Sep-17 21:30N 38°57' W 009°52'2 4.6
2017-Sep-17 21:00N 38°58' W 009°54'5 9.8
2017-Sep-17 20:30N 39°03' W 009°55'1 1.3
2017-Sep-17 19:59N 39°04' W 009°56'2 3.1
2017-Sep-17 19:30N 39°02' W 009°57'4 3.3
2017-Sep-17 18:19N 38°59' W 009°58'1 3.1
2017-Sep-17 17:55N 38°57' W 009°58'1 0.4
2017-Sep-17 15:07N 38°57' W 009°60'0 3.3
2017-Sep-17 14:59N 38°58' W 009°59'2 3.1
2017-Sep-17 14:30N 38°59' W 009°59'1 3.0
2017-Sep-17 14:00N 39°00' W 009°60'2 3.0
2017-Sep-17 13:30N 39°02' W 010°01'1 3.0
2017-Sep-17 13:00N 39°03' W 010°01'2 3.1
2017-Sep-17 12:30N 39°05' W 010°02'2 3.0
2017-Sep-17 12:00N 39°06' W 010°03'12 2.1
2017-Sep-17 06:16N 38°56' W 009°55'0 1.2
2017-Sep-17 06:00N 38°56' W 009°55'1 2.9
2017-Sep-17 05:30N 38°57' W 009°53'2 3.0
2017-Sep-17 05:00N 38°58' W 009°51'2 3.0
2017-Sep-17 04:30N 38°57' W 009°49'3 3.1
2017-Sep-17 03:40N 38°56' W 009°46'1 3.5
2017-Sep-17 03:30N 38°56' W 009°46'2 3.0
2017-Sep-17 03:00N 38°56' W 009°48'2 3.1
2017-Sep-17 02:30N 38°56' W 009°50'2 3.0
2017-Sep-17 02:00N 38°57' W 009°52'2 3.8
2017-Sep-17 01:30N 38°57' W 009°54'1 2.0
2017-Sep-17 01:00N 38°58' W 009°55'2 3.0
2017-Sep-17 00:29N 38°59' W 009°56'1 2.9
2017-Sep-17 00:00N 39°01' W 009°57'2 3.0
2017-Sep-16 23:22N 39°02' W 009°55'1 3.0
2017-Sep-16 23:00N 39°03' W 009°54'1 3.0
2017-Sep-16 22:30N 39°04' W 009°53'1 2.9
2017-Sep-16 22:00N 39°05' W 009°51'1 3.0
2017-Sep-16 21:30N 39°05' W 009°49'2 3.7
2017-Sep-16 21:00N 39°05' W 009°47'0 0.2
2017-Sep-16 20:30N 39°05' W 009°47'2 3.2
2017-Sep-16 20:00N 39°05' W 009°49'2 3.3
2017-Sep-16 19:29N 39°04' W 009°51'2 3.3
2017-Sep-16 19:00N 39°03' W 009°52'2 3.2
2017-Sep-16 18:30N 39°03' W 009°54'1 2.8
2017-Sep-16 18:00N 39°02' W 009°56'1 2.9
2017-Sep-16 17:30N 39°01' W 009°57'2 3.0
2017-Sep-16 16:51N 38°59' W 009°57'1 2.9
2017-Sep-16 16:29N 38°58' W 009°57'1 3.0
2017-Sep-16 15:59N 38°57' W 009°59'3 1.7
2017-Sep-16 14:27N 38°55' W 010°02'2 3.1
2017-Sep-16 13:55N 38°57' W 010°00'2 3.1
2017-Sep-16 13:24N 38°58' W 009°59'1 3.1
2017-Sep-16 13:00N 38°59' W 009°59'2 3.1
2017-Sep-16 12:30N 39°01' W 009°60'2 3.1
2017-Sep-16 12:00N 39°02' W 009°60'2 3.1
2017-Sep-16 11:30N 39°04' W 009°60'3 0.7
2017-Sep-16 07:27N 39°02' W 009°57'3 3.1
2017-Sep-16 06:33N 38°59' W 009°58'0 3.2
2017-Sep-16 06:28N 38°59' W 009°58'2 3.4
2017-Sep-16 05:55N 38°57' W 009°59'3 1.8
2017-Sep-16 04:26N 38°54' W 009°58'3 2.9
2017-Sep-16 03:23N 38°57' W 009°57'1 3.0
2017-Sep-16 03:00N 38°58' W 009°57'2 3.0
2017-Sep-16 02:22N 39°00' W 009°56'1 3.0
2017-Sep-16 02:00N 39°01' W 009°56'2 3.1
2017-Sep-16 01:30N 39°02' W 009°54'2 3.0
2017-Sep-16 01:00N 39°03' W 009°53'2 3.1
2017-Sep-16 00:31N 39°04' W 009°52'2 3.1
2017-Sep-16 00:00N 39°05' W 009°50'2 3.1
2017-Sep-15 23:30N 39°05' W 009°48'1 2.2
2017-Sep-15 23:01N 39°05' W 009°49'2 3.2
2017-Sep-15 22:30N 39°05' W 009°51'1 3.0
2017-Sep-15 22:00N 39°07' W 009°51'2 3.0
2017-Sep-15 21:30N 39°08' W 009°51'1 3.0
2017-Sep-15 21:01N 39°10' W 009°51'2 3.0
2017-Sep-15 20:29N 39°11' W 009°51'  
2017-Sep-10 07:41N 39°11' W 009°55'6 3.6
2017-Sep-10 06:09N 39°08' W 009°48'0 0.8
2017-Sep-10 06:00N 39°08' W 009°49'1 2.2
2017-Sep-10 05:30N 39°09' W 009°50'2 3.0
2017-Sep-10 04:57N 39°10' W 009°51'2 3.0
2017-Sep-10 04:25N 39°12' W 009°52'1 3.0
2017-Sep-10 03:59N 39°13' W 009°52'6 0.3
2017-Sep-09 07:33N 39°07' W 009°54'0 3.3
2017-Sep-09 07:30N 39°07' W 009°54'0 1.0
2017-Sep-09 07:00N 39°07' W 009°54'2 3.1
2017-Sep-09 06:28N 39°09' W 009°53'6 3.1
2017-Sep-09 04:34N 39°15' W 009°53'0 3.0
2017-Sep-09 04:28N 39°15' W 009°52'  
Track history (hours):
 
Tides and Currents Weather Stations Pressure Air Temp Water Temp Dewpoint Dewpoint Depression Visibility Wind Speed Wind Dir Waves Ship Positions

Catrua

Last reported at 2017-Sep-18 12:58 UTC. Time now 2017-Sep-23 02:25 UTC.
Position N 39°07' W 009°54'.

Length 27 m.

Type: Fishing. MMSI: 224355000.

Date/timePositionNaut miles runAvg speedWind from/ knotsBaromVisibWave heightAir tempDewpointWater temp
2017-Sep-18 12:58N 39°07' W 009°54'3 5.8
2017-Sep-18 12:30N 39°09' W 009°55'1 1.3
2017-Sep-18 12:00N 39°10' W 009°55'2 3.0
2017-Sep-18 11:28N 39°11' W 009°56'2 2.9
2017-Sep-18 10:37N 39°14' W 009°57'11 1.2
2017-Sep-18 01:02N 39°03' W 009°51'1 9.3
2017-Sep-18 00:59N 39°03' W 009°51'4 9.2
2017-Sep-18 00:30N 38°59' W 009°49'2 4.7
2017-Sep-18 00:00N 38°57' W 009°48'1 1.4
2017-Sep-17 23:30N 38°57' W 009°47'1 2.3
2017-Sep-17 23:00N 38°56' W 009°47'2 3.0
2017-Sep-17 22:30N 38°56' W 009°48'2 3.1
2017-Sep-17 22:00N 38°56' W 009°50'2 3.2
2017-Sep-17 21:30N 38°57' W 009°52'2 4.6
2017-Sep-17 21:00N 38°58' W 009°54'5 9.8
2017-Sep-17 20:30N 39°03' W 009°55'1 1.3
2017-Sep-17 19:59N 39°04' W 009°56'2 3.1
2017-Sep-17 19:30N 39°02' W 009°57'4 3.3
2017-Sep-17 18:19N 38°59' W 009°58'1 3.1
2017-Sep-17 17:55N 38°57' W 009°58'1 0.4
2017-Sep-17 15:07N 38°57' W 009°60'0 3.3
2017-Sep-17 14:59N 38°58' W 009°59'2 3.1
2017-Sep-17 14:30N 38°59' W 009°59'1 3.0
2017-Sep-17 14:00N 39°00' W 009°60'2 3.0
2017-Sep-17 13:30N 39°02' W 010°01'1 3.0
2017-Sep-17 13:00N 39°03' W 010°01'2 3.1
2017-Sep-17 12:30N 39°05' W 010°02'2 3.0
2017-Sep-17 12:00N 39°06' W 010°03'12 2.1
2017-Sep-17 06:16N 38°56' W 009°55'0 1.2
2017-Sep-17 06:00N 38°56' W 009°55'1 2.9
2017-Sep-17 05:30N 38°57' W 009°53'2 3.0
2017-Sep-17 05:00N 38°58' W 009°51'2 3.0
2017-Sep-17 04:30N 38°57' W 009°49'3 3.1
2017-Sep-17 03:40N 38°56' W 009°46'1 3.5
2017-Sep-17 03:30N 38°56' W 009°46'2 3.0
2017-Sep-17 03:00N 38°56' W 009°48'2 3.1
2017-Sep-17 02:30N 38°56' W 009°50'2 3.0
2017-Sep-17 02:00N 38°57' W 009°52'2 3.8
2017-Sep-17 01:30N 38°57' W 009°54'1 2.0
2017-Sep-17 01:00N 38°58' W 009°55'2 3.0
2017-Sep-17 00:29N 38°59' W 009°56'1 2.9
2017-Sep-17 00:00N 39°01' W 009°57'2 3.0
2017-Sep-16 23:22N 39°02' W 009°55'1 3.0
2017-Sep-16 23:00N 39°03' W 009°54'1 3.0
2017-Sep-16 22:30N 39°04' W 009°53'1 2.9
2017-Sep-16 22:00N 39°05' W 009°51'1 3.0
2017-Sep-16 21:30N 39°05' W 009°49'2 3.7
2017-Sep-16 21:00N 39°05' W 009°47'0 0.2
2017-Sep-16 20:30N 39°05' W 009°47'2 3.2
2017-Sep-16 20:00N 39°05' W 009°49'2 3.3
2017-Sep-16 19:29N 39°04' W 009°51'2 3.3
2017-Sep-16 19:00N 39°03' W 009°52'2 3.2
2017-Sep-16 18:30N 39°03' W 009°54'1 2.8
2017-Sep-16 18:00N 39°02' W 009°56'1 2.9
2017-Sep-16 17:30N 39°01' W 009°57'2 3.0
2017-Sep-16 16:51N 38°59' W 009°57'1 2.9
2017-Sep-16 16:29N 38°58' W 009°57'1 3.0
2017-Sep-16 15:59N 38°57' W 009°59'3 1.7
2017-Sep-16 14:27N 38°55' W 010°02'2 3.1
2017-Sep-16 13:55N 38°57' W 010°00'2 3.1
2017-Sep-16 13:24N 38°58' W 009°59'1 3.1
2017-Sep-16 13:00N 38°59' W 009°59'2 3.1
2017-Sep-16 12:30N 39°01' W 009°60'2 3.1
2017-Sep-16 12:00N 39°02' W 009°60'2 3.1
2017-Sep-16 11:30N 39°04' W 009°60'3 0.7
2017-Sep-16 07:27N 39°02' W 009°57'3 3.1
2017-Sep-16 06:33N 38°59' W 009°58'0 3.2
2017-Sep-16 06:28N 38°59' W 009°58'2 3.4
2017-Sep-16 05:55N 38°57' W 009°59'3 1.8
2017-Sep-16 04:26N 38°54' W 009°58'3 2.9
2017-Sep-16 03:23N 38°57' W 009°57'1 3.0
2017-Sep-16 03:00N 38°58' W 009°57'2 3.0
2017-Sep-16 02:22N 39°00' W 009°56'1 3.0
2017-Sep-16 02:00N 39°01' W 009°56'2 3.1
2017-Sep-16 01:30N 39°02' W 009°54'2 3.0
2017-Sep-16 01:00N 39°03' W 009°53'2 3.1
2017-Sep-16 00:31N 39°04' W 009°52'2 3.1
2017-Sep-16 00:00N 39°05' W 009°50'2 3.1
2017-Sep-15 23:30N 39°05' W 009°48'1 2.2
2017-Sep-15 23:01N 39°05' W 009°49'2 3.2
2017-Sep-15 22:30N 39°05' W 009°51'1 3.0
2017-Sep-15 22:00N 39°07' W 009°51'2 3.0
2017-Sep-15 21:30N 39°08' W 009°51'1 3.0
2017-Sep-15 21:01N 39°10' W 009°51'2 3.0
2017-Sep-15 20:29N 39°11' W 009°51'  
2017-Sep-10 07:41N 39°11' W 009°55'6 3.6
2017-Sep-10 06:09N 39°08' W 009°48'0 0.8
2017-Sep-10 06:00N 39°08' W 009°49'1 2.2
2017-Sep-10 05:30N 39°09' W 009°50'2 3.0
2017-Sep-10 04:57N 39°10' W 009°51'2 3.0
2017-Sep-10 04:25N 39°12' W 009°52'1 3.0
2017-Sep-10 03:59N 39°13' W 009°52'6 0.3
2017-Sep-09 07:33N 39°07' W 009°54'0 3.3
2017-Sep-09 07:30N 39°07' W 009°54'0 1.0
2017-Sep-09 07:00N 39°07' W 009°54'2 3.1
2017-Sep-09 06:28N 39°09' W 009°53'6 3.1
2017-Sep-09 04:34N 39°15' W 009°53'0 3.0
2017-Sep-09 04:28N 39°15' W 009°52'  

Dump ship's entire track history